createdAt,value
2023-05-22T00:02:18.825Z,17.3
2023-05-22T00:08:32.075Z,17.5
2023-05-22T00:10:35.448Z,17.6
2023-05-22T00:12:38.818Z,17.6
2023-05-22T00:14:42.127Z,17.5
2023-05-22T00:16:45.584Z,17.7
2023-05-22T00:18:48.970Z,17.6
2023-05-22T00:20:55.417Z,17.6
2023-05-22T00:22:58.816Z,17.5
2023-05-22T00:25:02.184Z,17.6
2023-05-22T00:26:05.451Z,17.6
2023-05-22T00:30:12.152Z,17.7
2023-05-22T00:34:22.030Z,17.6
2023-05-22T00:36:25.388Z,17.6
2023-05-22T00:38:28.757Z,17.7
2023-05-22T00:40:32.142Z,17.8
2023-05-22T00:42:35.515Z,17.8
2023-05-22T00:44:38.888Z,17.6
2023-05-22T00:46:42.243Z,17.8
2023-05-22T00:48:48.631Z,17.7
2023-05-22T00:50:52.036Z,17.8
2023-05-22T00:52:55.398Z,17.7
2023-05-22T00:54:58.731Z,17.7
2023-05-22T00:57:02.007Z,17.7
2023-05-22T01:13:32.071Z,17.4
2023-05-22T01:22:51.784Z,17.2
2023-05-22T01:24:55.207Z,17.2
2023-05-22T01:26:58.553Z,17.2
2023-05-22T01:29:01.938Z,17
2023-05-22T01:31:08.315Z,17.1
2023-05-22T01:33:11.803Z,17.1
2023-05-22T01:35:15.097Z,16.8
2023-05-22T01:37:18.474Z,16.9
2023-05-22T01:39:21.847Z,16.8
2023-05-22T01:47:38.394Z,16.6
2023-05-22T01:51:45.126Z,16.6
2023-05-22T02:00:01.785Z,16.6
2023-05-22T02:08:15.362Z,16.5
2023-05-22T02:12:22.162Z,16.6
2023-05-22T02:14:28.625Z,16.3
2023-05-22T02:16:32.047Z,16.3
2023-05-22T02:20:59.663Z,16.3
2023-05-22T02:23:03.068Z,16.2
2023-05-22T02:25:06.522Z,16.3
2023-05-22T02:27:12.980Z,16.2
2023-05-22T02:29:16.373Z,16.1
2023-05-22T02:31:19.813Z,16.2
2023-05-22T02:33:23.166Z,16.1
2023-05-22T02:37:30.001Z,15.9
2023-05-22T02:39:33.423Z,16.1
2023-05-22T02:43:43.344Z,16
2023-05-22T02:45:46.766Z,16.1
2023-05-22T02:47:50.189Z,15.8
2023-05-22T02:49:53.620Z,16.1
2023-05-22T02:51:57.033Z,16.1
2023-05-22T02:54:00.421Z,16
2023-05-22T02:56:06.890Z,15.8
2023-05-22T02:58:10.358Z,15.6
2023-05-22T03:00:14.910Z,15.9
2023-05-22T03:02:17.165Z,16
2023-05-22T03:04:20.611Z,15.7
2023-05-22T03:06:24.000Z,15.9
2023-05-22T03:08:27.433Z,15.7
2023-05-22T03:10:33.964Z,15.7
2023-05-22T03:12:37.417Z,15.6
2023-05-22T03:14:40.801Z,15.5
2023-05-22T03:15:44.069Z,15.6
2023-05-22T03:17:47.585Z,15.6
2023-05-22T03:19:50.866Z,15.5
2023-05-22T03:21:54.369Z,15.7
2023-05-22T03:24:00.890Z,15.4
2023-05-22T03:26:04.263Z,15.5
2023-05-22T03:28:07.703Z,15.5
2023-05-22T03:30:11.129Z,15.6
2023-05-22T03:32:14.552Z,15.2
2023-05-22T03:34:18.017Z,15.3
2023-05-22T03:36:21.421Z,15.3
2023-05-22T03:38:27.942Z,15.3
2023-05-22T03:40:31.336Z,15.3
2023-05-22T03:42:34.814Z,15.4
2023-05-22T03:44:38.207Z,15.3
2023-05-22T03:46:41.668Z,15.3
2023-05-22T03:48:45.097Z,15.2
2023-05-22T03:52:55.008Z,15.2
2023-05-22T03:54:58.466Z,15.1
2023-05-22T03:57:01.894Z,15.1
2023-05-22T03:59:05.353Z,15.1
2023-05-22T04:01:08.760Z,15.1
2023-05-22T04:07:22.158Z,15
2023-05-22T04:12:32.323Z,14.9
2023-05-22T04:14:35.765Z,14.9
2023-05-22T04:16:39.208Z,14.9
2023-05-22T04:18:42.674Z,14.9
2023-05-22T04:24:56.088Z,14.9
2023-05-22T04:29:02.987Z,15
2023-05-22T04:31:06.579Z,15
2023-05-22T04:41:26.937Z,14.9
2023-05-22T04:43:30.217Z,14.9
2023-05-22T04:45:33.700Z,14.9
2023-05-22T04:47:37.164Z,14.9
2023-05-22T05:00:00.957Z,15
2023-05-22T05:02:04.423Z,15.1
2023-05-22T05:04:11.081Z,15.2
2023-05-22T05:06:15.949Z,15.2
2023-05-22T05:09:22.653Z,15.4
2023-05-22T05:15:33.005Z,15.5
2023-05-22T05:17:39.623Z,15.6
2023-05-22T05:19:43.032Z,15.6
2023-05-22T05:21:46.491Z,15.6
2023-05-22T05:23:49.934Z,15.7
2023-05-22T05:27:56.806Z,15.8
2023-05-22T05:30:00.197Z,15.9
2023-05-22T05:32:06.758Z,16.1
2023-05-22T05:34:10.182Z,16.1
2023-05-22T05:36:13.619Z,16.2
2023-05-22T05:38:17.087Z,16.3
2023-05-22T05:42:23.978Z,16.5
2023-05-22T05:44:27.397Z,16.6
2023-05-22T05:46:34.088Z,16.8
2023-05-22T05:48:37.380Z,16.7
2023-05-22T05:50:41.000Z,16.9
2023-05-22T05:52:44.254Z,17
2023-05-22T05:54:47.696Z,17.1
2023-05-22T05:56:51.119Z,17.3
2023-05-22T06:01:01.065Z,17.6
2023-05-22T06:05:07.909Z,17.8
2023-05-22T06:07:31.957Z,18
2023-05-22T06:09:35.341Z,18
2023-05-22T06:11:38.743Z,18
2023-05-22T06:13:45.278Z,18.1
2023-05-22T06:15:48.716Z,18.1
2023-05-22T06:17:52.123Z,18.2
2023-05-22T06:19:55.524Z,18.3
2023-05-22T06:21:58.879Z,18.4
2023-05-22T06:26:05.682Z,18.6
2023-05-22T06:28:12.182Z,18.7
2023-05-22T06:40:32.336Z,18.9
2023-05-22T06:42:38.790Z,18.8
2023-05-22T06:44:42.070Z,18.9
2023-05-22T06:46:45.352Z,19
2023-05-22T06:48:48.592Z,19.1
2023-05-22T06:50:51.877Z,19.1
2023-05-22T06:52:55.238Z,19.1
2023-05-22T06:54:58.578Z,19.2
2023-05-22T06:57:04.944Z,19.1
2023-05-22T06:59:08.308Z,19.1
2023-05-22T07:01:11.583Z,19.3
2023-05-22T07:02:14.795Z,19.3
2023-05-22T07:04:18.051Z,19.2
2023-05-22T07:06:21.355Z,19
2023-05-22T07:08:24.655Z,19
2023-05-22T07:10:31.130Z,18.9
2023-05-22T07:12:34.462Z,18.9
2023-05-22T07:14:37.802Z,19
2023-05-22T07:16:41.098Z,19
2023-05-22T07:18:44.406Z,19
2023-05-22T07:24:57.284Z,19.2
2023-05-22T07:31:07.233Z,19.4
2023-05-22T07:33:10.589Z,19.6
2023-05-22T07:35:13.778Z,19.8
2023-05-22T07:37:17.111Z,20
2023-05-22T07:39:23.494Z,20.1
2023-05-22T07:43:30.016Z,20.5
2023-05-22T07:45:33.248Z,20.8
2023-05-22T07:47:36.520Z,20.6
2023-05-22T07:49:39.708Z,20.4
2023-05-22T07:58:58.802Z,20.8
2023-05-22T08:01:02.014Z,20.7
2023-05-22T08:03:05.256Z,20.8
2023-05-22T08:05:08.479Z,20.9
2023-05-22T08:07:14.674Z,20.7
2023-05-22T08:13:24.207Z,21.1
2023-05-22T08:29:52.785Z,22.2
2023-05-22T08:40:11.591Z,22.5
2023-05-22T08:44:17.901Z,22.4
2023-05-22T08:46:21.071Z,22.1
2023-05-22T08:52:33.445Z,22.3
2023-05-22T08:55:39.668Z,22.3
2023-05-22T08:57:42.834Z,22.1
2023-05-22T08:59:45.954Z,21.7
2023-05-22T09:01:49.141Z,22
2023-05-22T09:03:55.254Z,22.1
2023-05-22T09:05:58.370Z,22.1
2023-05-22T09:08:16.211Z,22
2023-05-22T09:10:04.666Z,21.9
2023-05-22T09:12:07.836Z,22.3
2023-05-22T09:14:10.933Z,22.4
2023-05-22T09:16:14.065Z,22.1
2023-05-22T09:18:20.188Z,21.9
2023-05-22T09:20:23.360Z,22
2023-05-22T09:22:26.432Z,22.2
2023-05-22T09:24:29.530Z,22.7
2023-05-22T09:38:54.351Z,22.2
2023-05-22T09:40:57.457Z,22.4
2023-05-22T09:43:00.545Z,23
2023-05-22T09:45:03.704Z,23.3
2023-05-22T09:47:09.780Z,23.1
2023-05-22T09:51:15.971Z,22.9
2023-05-22T09:53:39.177Z,23.4
2023-05-22T09:57:45.338Z,23.1
2023-05-22T10:01:54.610Z,23.3
2023-05-22T10:06:00.701Z,23.9
2023-05-22T10:08:03.772Z,24.1
2023-05-22T10:10:06.878Z,24.2
2023-05-22T10:12:09.963Z,24.1
2023-05-22T10:14:16.043Z,24
2023-05-22T10:16:19.128Z,24
2023-05-22T10:18:22.160Z,24.2
2023-05-22T10:20:25.254Z,24
2023-05-22T10:22:28.278Z,24.4
2023-05-22T10:24:31.361Z,24.7
2023-05-22T10:26:34.376Z,24.2
2023-05-22T10:28:40.475Z,23.9
2023-05-22T10:30:43.629Z,23.8
2023-05-22T10:32:46.597Z,23.9
2023-05-22T10:36:53.321Z,24.6
2023-05-22T10:38:55.700Z,24.7
2023-05-22T10:40:58.732Z,24
2023-05-22T10:45:11.426Z,24.5
2023-05-22T10:47:10.859Z,24.6
2023-05-22T10:48:13.885Z,24.8
2023-05-22T11:06:45.714Z,25
2023-05-22T11:10:54.350Z,25.6
2023-05-22T11:12:57.323Z,25.8
2023-05-22T11:15:00.268Z,25.6
2023-05-22T11:17:03.191Z,25.7
2023-05-22T11:21:08.974Z,25.8
2023-05-22T11:23:11.885Z,26.4
2023-05-22T11:25:17.844Z,26.4
2023-05-22T11:27:20.732Z,26.6
2023-05-22T11:29:23.594Z,27
2023-05-22T11:31:26.578Z,27.1
2023-05-22T11:33:29.291Z,25.9
2023-05-22T11:35:32.141Z,26.3
2023-05-22T11:37:34.967Z,26.8
2023-05-22T11:39:40.887Z,27
2023-05-22T11:41:43.659Z,26.9
2023-05-22T11:43:46.462Z,26.9
2023-05-22T11:44:49.607Z,27.3
2023-05-22T11:46:52.570Z,27.2
2023-05-22T11:48:55.187Z,26.9
2023-05-22T11:50:57.952Z,26.6
2023-05-22T11:53:03.805Z,26.6
2023-05-22T11:55:06.571Z,26.3
2023-05-22T11:57:09.299Z,26.6
2023-05-22T11:59:11.985Z,26.8
2023-05-22T12:03:17.565Z,26.6
2023-05-22T12:05:20.175Z,26.9
2023-05-22T12:07:25.938Z,27.1
2023-05-22T12:09:28.615Z,27.2
2023-05-22T12:11:31.297Z,26.8
2023-05-22T12:13:33.975Z,26.9
2023-05-22T12:15:36.653Z,26.9
2023-05-22T12:17:39.296Z,26.4
2023-05-22T12:19:41.959Z,26.1
2023-05-22T12:21:47.728Z,25.8
2023-05-22T12:23:50.377Z,25.7
2023-05-22T12:25:53.043Z,25.3
2023-05-22T12:29:58.395Z,26.1
2023-05-22T12:32:01.143Z,26
2023-05-22T12:34:03.793Z,26.2
2023-05-22T12:36:09.612Z,27.7
2023-05-22T12:40:15.002Z,26.9
2023-05-22T12:41:17.885Z,26.5
2023-05-22T12:43:20.573Z,26.2
2023-05-22T12:45:23.253Z,25.5
2023-05-22T12:47:26.284Z,25.1
2023-05-22T12:53:37.170Z,25.5
2023-05-22T12:55:39.915Z,25.7
2023-05-22T12:57:42.704Z,25.5
2023-05-22T13:20:19.656Z,24.8
2023-05-22T13:22:22.494Z,24.7
2023-05-22T13:24:25.358Z,24.6
2023-05-22T13:26:28.243Z,24.4
2023-05-22T13:28:31.102Z,24.3
2023-05-22T13:30:34.005Z,24.3
2023-05-22T13:32:39.961Z,24.2
2023-05-22T13:39:08.788Z,23.5
2023-05-22T13:41:11.727Z,23.4
2023-05-22T13:43:14.659Z,23.6
2023-05-22T13:49:26.502Z,24.3
2023-05-22T13:51:29.466Z,24.9
2023-05-22T13:53:32.412Z,25.1
2023-05-22T13:55:35.346Z,24.9
2023-05-22T13:57:38.251Z,24.8
2023-05-22T13:59:44.226Z,24.5
2023-05-22T14:03:50.047Z,24.6
2023-05-22T14:10:01.205Z,24.9
2023-05-22T14:18:13.363Z,23.2
2023-05-22T14:20:16.246Z,23
2023-05-22T14:26:24.961Z,22.8
2023-05-22T14:28:30.954Z,22.8
2023-05-22T14:30:34.026Z,22.8
2023-05-22T14:32:36.867Z,22.8
2023-05-22T14:35:42.909Z,22.5
2023-05-22T14:41:54.824Z,22.4
2023-05-22T14:58:22.054Z,22.6
2023-05-22T15:02:28.188Z,22.6
2023-05-22T15:04:31.235Z,22.9
2023-05-22T15:06:34.242Z,23.3
2023-05-22T15:10:43.416Z,23.4
2023-05-22T15:16:52.655Z,23.9
2023-05-22T15:25:07.869Z,23.6
2023-05-22T15:27:10.854Z,23.6
2023-05-22T15:34:22.969Z,23.6
2023-05-22T15:38:32.075Z,23.5
2023-05-22T15:40:35.107Z,23.5
2023-05-22T15:42:38.135Z,23.4
2023-05-22T15:44:41.170Z,23.6
2023-05-22T15:46:44.232Z,23.1
2023-05-22T15:50:50.453Z,22.7
2023-05-22T15:52:56.396Z,22.9
2023-05-22T16:01:08.619Z,22.9
2023-05-22T16:13:29.945Z,22.8
2023-05-22T16:15:33.020Z,22.8
2023-05-22T16:17:36.133Z,22.8
2023-05-22T16:21:45.201Z,22.7
2023-05-22T16:23:48.253Z,22.5
2023-05-22T16:25:51.322Z,22.4
2023-05-22T16:26:54.358Z,22.8
2023-05-22T16:47:28.212Z,22.2
2023-05-22T16:49:34.357Z,22.1
2023-05-22T16:51:37.449Z,22
2023-05-22T16:55:43.670Z,21.9
2023-05-22T16:57:48.281Z,21.9
2023-05-22T16:59:51.322Z,21.9
2023-05-22T17:06:03.663Z,22
2023-05-22T17:08:06.778Z,22
2023-05-22T17:10:09.911Z,22.1
2023-05-22T17:12:13.001Z,22.2
2023-05-22T17:16:19.228Z,22.2
2023-05-22T17:18:25.348Z,22.7
2023-05-22T17:20:28.456Z,22.5
2023-05-22T17:24:55.062Z,23.1
2023-05-22T17:26:58.198Z,23.2
2023-05-22T17:29:01.309Z,23.5
2023-05-22T17:45:31.929Z,23.2
2023-05-22T17:47:35.025Z,23.1
2023-05-22T17:49:38.054Z,22.8
2023-05-22T17:53:44.120Z,22.8
2023-05-22T17:55:47.184Z,22.9
2023-05-22T18:06:05.470Z,22
2023-05-22T18:08:08.509Z,22.2
2023-05-22T18:14:20.702Z,22.2
2023-05-22T18:16:23.816Z,21.9
2023-05-22T18:18:26.813Z,21.8
2023-05-22T18:19:29.895Z,22
2023-05-22T18:23:35.972Z,21.3
2023-05-22T18:25:39.048Z,21.6
2023-05-22T18:27:45.159Z,21.1
2023-05-22T18:29:48.244Z,21
2023-05-22T18:31:51.383Z,20.9
2023-05-22T18:35:57.488Z,20.4
2023-05-22T18:38:00.601Z,20.2
2023-05-22T18:42:09.798Z,19.4
2023-05-22T18:44:12.974Z,19.1
2023-05-22T18:46:16.066Z,18.9
2023-05-22T18:48:19.150Z,18.9
2023-05-22T18:58:38.037Z,18.4
2023-05-22T19:16:10.205Z,17.9
2023-05-22T19:18:13.437Z,17.9
2023-05-22T19:20:16.589Z,17.8
2023-05-22T19:22:19.959Z,17.7
2023-05-22T19:24:26.419Z,17.6
2023-05-22T19:26:29.748Z,17.6
2023-05-22T19:28:33.111Z,17.6
2023-05-22T19:30:36.524Z,17.5
2023-05-22T19:32:39.828Z,17.5
2023-05-22T19:34:43.151Z,17.4
2023-05-22T19:36:46.528Z,17.4
2023-05-22T19:38:53.813Z,17.4
2023-05-22T19:40:56.372Z,17.4
2023-05-22T19:42:59.739Z,17.4
2023-05-22T19:45:03.142Z,17.3
2023-05-22T19:47:06.520Z,17.2
2023-05-22T19:51:13.279Z,17.1
2023-05-22T19:53:19.788Z,17.1
2023-05-22T19:55:23.194Z,17.1
2023-05-22T19:59:29.942Z,17
2023-05-22T20:01:33.420Z,17
2023-05-22T20:03:36.814Z,16.8
2023-05-22T20:05:40.183Z,16.7
2023-05-22T20:07:46.518Z,16.6
2023-05-22T20:09:49.859Z,16.6
2023-05-22T20:11:53.260Z,16.5
2023-05-22T20:12:56.389Z,16.5
2023-05-22T20:14:59.746Z,16.5
2023-05-22T20:17:03.178Z,16.5
2023-05-22T20:19:06.614Z,16.4
2023-05-22T20:21:13.018Z,16.4
2023-05-22T20:23:16.384Z,16.3
2023-05-22T20:25:19.776Z,16.4
2023-05-22T20:31:29.849Z,16.1
2023-05-22T20:33:33.116Z,16.1
2023-05-22T20:35:39.787Z,16
2023-05-22T20:37:42.910Z,16
2023-05-22T20:39:46.230Z,16
2023-05-22T20:41:49.629Z,16
2023-05-22T20:43:52.943Z,15.9
2023-05-22T20:50:06.107Z,15.7
2023-05-22T20:52:09.498Z,15.6
2023-05-22T20:54:12.860Z,15.5
2023-05-22T20:56:16.274Z,15.5
2023-05-22T20:58:19.635Z,15.5
2023-05-22T21:02:26.461Z,15.4
2023-05-22T21:17:15.080Z,14.9
2023-05-22T21:19:18.435Z,14.9
2023-05-22T21:21:21.824Z,14.9
2023-05-22T21:23:25.326Z,15
2023-05-22T21:25:28.660Z,15
2023-05-22T21:27:32.088Z,15
2023-05-22T21:31:42.064Z,15
2023-05-22T21:33:45.451Z,15.1
2023-05-22T21:35:48.859Z,15
2023-05-22T21:37:52.299Z,15.1
2023-05-22T21:39:55.760Z,15
2023-05-22T21:41:59.174Z,15
2023-05-22T21:44:02.601Z,14.9
2023-05-22T21:50:15.984Z,14.9
2023-05-22T21:54:22.887Z,15
2023-05-22T22:00:36.297Z,15.1
2023-05-22T22:05:46.436Z,15.1
2023-05-22T22:09:53.353Z,15
2023-05-22T22:18:10.231Z,14.9
2023-05-22T22:20:13.615Z,14.9
2023-05-22T22:24:20.498Z,15
2023-05-22T22:28:30.521Z,14.9
2023-05-22T22:32:37.442Z,14.9
2023-05-22T22:45:01.526Z,14.9
2023-05-22T22:47:04.979Z,14.9
2023-05-22T22:53:16.885Z,14.9
2023-05-22T22:55:20.293Z,15
2023-05-22T22:57:26.825Z,15
2023-05-22T22:59:30.302Z,15
2023-05-22T23:01:33.890Z,15
2023-05-22T23:02:37.082Z,15
2023-05-22T23:04:40.611Z,15
2023-05-22T23:06:43.952Z,15
2023-05-22T23:08:47.389Z,14.9
2023-05-22T23:10:53.923Z,14.9
2023-05-22T23:12:57.380Z,15
2023-05-22T23:15:00.853Z,15
2023-05-22T23:23:14.655Z,14.9
2023-05-22T23:25:21.217Z,14.9
2023-05-22T23:27:24.677Z,15
2023-05-22T23:31:31.598Z,14.9
2023-05-22T23:37:41.945Z,14.9
2023-05-22T23:50:05.745Z,14.9
2023-05-22T23:52:09.226Z,14.8
2023-05-22T23:54:15.786Z,14.8
2023-05-22T23:56:19.216Z,14.8
2023-05-22T23:58:22.705Z,14.8
2023-05-22T23:59:25.982Z,14.9
